sensor_id;sensor_type;location;lat;lon;timestamp;P1;durP1;ratioP1;P2;durP2;ratioP2
3465;SDS011;1747;48.884;9.160;2023-11-21T00:01:05;3.83;;;0.60;;
3465;SDS011;1747;48.884;9.160;2023-11-21T00:03:35;2.15;;;0.93;;
3465;SDS011;1747;48.884;9.160;2023-11-21T00:06:02;3.92;;;1.00;;
3465;SDS011;1747;48.884;9.160;2023-11-21T00:08:29;4.72;;;1.08;;
3465;SDS011;1747;48.884;9.160;2023-11-21T00:10:56;2.88;;;0.90;;
3465;SDS011;1747;48.884;9.160;2023-11-21T00:13:23;5.13;;;1.00;;
3465;SDS011;1747;48.884;9.160;2023-11-21T00:15:50;1.33;;;0.60;;
3465;SDS011;1747;48.884;9.160;2023-11-21T00:18:17;2.65;;;0.75;;
3465;SDS011;1747;48.884;9.160;2023-11-21T00:20:45;2.00;;;0.73;;
3465;SDS011;1747;48.884;9.160;2023-11-21T00:23:12;1.73;;;0.63;;
3465;SDS011;1747;48.884;9.160;2023-11-21T00:25:39;1.77;;;0.77;;
3465;SDS011;1747;48.884;9.160;2023-11-21T00:28:06;4.00;;;0.77;;
3465;SDS011;1747;48.884;9.160;2023-11-21T00:30:33;2.97;;;0.65;;
3465;SDS011;1747;48.884;9.160;2023-11-21T00:33:00;5.38;;;0.85;;
3465;SDS011;1747;48.884;9.160;2023-11-21T00:35:27;0.95;;;0.60;;
3465;SDS011;1747;48.884;9.160;2023-11-21T00:37:55;0.95;;;0.52;;
3465;SDS011;1747;48.884;9.160;2023-11-21T00:40:22;2.05;;;0.70;;
3465;SDS011;1747;48.884;9.160;2023-11-21T00:42:49;1.60;;;0.73;;
3465;SDS011;1747;48.884;9.160;2023-11-21T00:45:16;2.67;;;0.70;;
3465;SDS011;1747;48.884;9.160;2023-11-21T00:47:43;2.05;;;0.50;;
3465;SDS011;1747;48.884;9.160;2023-11-21T00:50:10;2.58;;;0.63;;
3465;SDS011;1747;48.884;9.160;2023-11-21T00:52:37;2.03;;;0.80;;
3465;SDS011;1747;48.884;9.160;2023-11-21T00:55:05;2.53;;;0.70;;
3465;SDS011;1747;48.884;9.160;2023-11-21T00:57:33;1.73;;;0.65;;
3465;SDS011;1747;48.884;9.160;2023-11-21T01:00:00;2.28;;;0.95;;
3465;SDS011;1747;48.884;9.160;2023-11-21T01:02:31;2.83;;;0.85;;
3465;SDS011;1747;48.884;9.160;2023-11-21T01:05:00;1.85;;;0.80;;
3465;SDS011;1747;48.884;9.160;2023-11-21T01:07:27;2.13;;;0.80;;
3465;SDS011;1747;48.884;9.160;2023-11-21T01:09:54;2.17;;;0.70;;
3465;SDS011;1747;48.884;9.160;2023-11-21T01:12:22;1.88;;;0.77;;
3465;SDS011;1747;48.884;9.160;2023-11-21T01:14:50;1.92;;;0.80;;
3465;SDS011;1747;48.884;9.160;2023-11-21T01:17:17;1.30;;;0.80;;
3465;SDS011;1747;48.884;9.160;2023-11-21T01:19:43;2.35;;;1.08;;
3465;SDS011;1747;48.884;9.160;2023-11-21T01:22:10;6.72;;;1.00;;
3465;SDS011;1747;48.884;9.160;2023-11-21T01:24:38;5.80;;;0.90;;
3465;SDS011;1747;48.884;9.160;2023-11-21T01:27:05;2.97;;;1.13;;
3465;SDS011;1747;48.884;9.160;2023-11-21T01:29:33;3.00;;;1.30;;
3465;SDS011;1747;48.884;9.160;2023-11-21T01:32:01;1.45;;;0.70;;
3465;SDS011;1747;48.884;9.160;2023-11-21T01:34:29;1.52;;;0.82;;
3465;SDS011;1747;48.884;9.160;2023-11-21T01:36:56;1.02;;;0.73;;
3465;SDS011;1747;48.884;9.160;2023-11-21T01:39:23;6.57;;;1.38;;
3465;SDS011;1747;48.884;9.160;2023-11-21T01:41:51;5.22;;;0.88;;
3465;SDS011;1747;48.884;9.160;2023-11-21T01:44:18;1.50;;;0.70;;
3465;SDS011;1747;48.884;9.160;2023-11-21T01:46:47;5.72;;;1.10;;
3465;SDS011;1747;48.884;9.160;2023-11-21T01:49:14;2.55;;;0.95;;
3465;SDS011;1747;48.884;9.160;2023-11-21T01:51:42;1.65;;;0.70;;
3465;SDS011;1747;48.884;9.160;2023-11-21T01:54:11;2.90;;;0.85;;
3465;SDS011;1747;48.884;9.160;2023-11-21T01:56:38;1.77;;;0.70;;
3465;SDS011;1747;48.884;9.160;2023-11-21T01:59:06;1.98;;;1.08;;
3465;SDS011;1747;48.884;9.160;2023-11-21T02:01:33;3.10;;;0.93;;
3465;SDS011;1747;48.884;9.160;2023-11-21T02:04:01;4.75;;;1.00;;
3465;SDS011;1747;48.884;9.160;2023-11-21T02:06:29;2.05;;;0.77;;
3465;SDS011;1747;48.884;9.160;2023-11-21T02:08:56;1.88;;;0.63;;
3465;SDS011;1747;48.884;9.160;2023-11-21T02:11:24;7.00;;;0.80;;
3465;SDS011;1747;48.884;9.160;2023-11-21T02:13:52;4.18;;;0.80;;
3465;SDS011;1747;48.884;9.160;2023-11-21T02:16:19;1.48;;;0.80;;
3465;SDS011;1747;48.884;9.160;2023-11-21T02:18:47;1.77;;;0.52;;
3465;SDS011;1747;48.884;9.160;2023-11-21T02:21:16;3.22;;;0.90;;
3465;SDS011;1747;48.884;9.160;2023-11-21T02:23:45;2.13;;;0.55;;
3465;SDS011;1747;48.884;9.160;2023-11-21T02:26:12;2.25;;;0.73;;
3465;SDS011;1747;48.884;9.160;2023-11-21T02:28:39;2.10;;;0.60;;
3465;SDS011;1747;48.884;9.160;2023-11-21T02:31:07;1.08;;;0.70;;
3465;SDS011;1747;48.884;9.160;2023-11-21T02:33:34;2.85;;;0.68;;
3465;SDS011;1747;48.884;9.160;2023-11-21T02:36:01;0.70;;;0.50;;
3465;SDS011;1747;48.884;9.160;2023-11-21T02:38:28;1.20;;;0.55;;
3465;SDS011;1747;48.884;9.160;2023-11-21T02:40:57;2.72;;;0.70;;
3465;SDS011;1747;48.884;9.160;2023-11-21T02:43:24;1.23;;;0.73;;
3465;SDS011;1747;48.884;9.160;2023-11-21T02:45:51;5.07;;;0.88;;
3465;SDS011;1747;48.884;9.160;2023-11-21T02:48:18;1.15;;;0.47;;
3465;SDS011;1747;48.884;9.160;2023-11-21T02:50:44;2.47;;;0.82;;
3465;SDS011;1747;48.884;9.160;2023-11-21T02:53:11;2.88;;;0.80;;
3465;SDS011;1747;48.884;9.160;2023-11-21T02:55:38;2.90;;;0.85;;
3465;SDS011;1747;48.884;9.160;2023-11-21T02:58:06;2.25;;;0.82;;
3465;SDS011;1747;48.884;9.160;2023-11-21T03:00:33;5.45;;;0.77;;
3465;SDS011;1747;48.884;9.160;2023-11-21T03:03:00;2.42;;;0.63;;
3465;SDS011;1747;48.884;9.160;2023-11-21T03:05:27;2.60;;;0.73;;
3465;SDS011;1747;48.884;9.160;2023-11-21T03:07:54;2.22;;;0.85;;
3465;SDS011;1747;48.884;9.160;2023-11-21T03:10:21;1.25;;;0.65;;
3465;SDS011;1747;48.884;9.160;2023-11-21T03:12:48;2.35;;;0.80;;
3465;SDS011;1747;48.884;9.160;2023-11-21T03:15:16;1.38;;;0.68;;
3465;SDS011;1747;48.884;9.160;2023-11-21T03:17:43;2.85;;;0.70;;
3465;SDS011;1747;48.884;9.160;2023-11-21T03:20:10;3.42;;;0.63;;
3465;SDS011;1747;48.884;9.160;2023-11-21T03:22:38;6.80;;;0.88;;
3465;SDS011;1747;48.884;9.160;2023-11-21T03:25:06;1.90;;;0.85;;
3465;SDS011;1747;48.884;9.160;2023-11-21T03:27:35;3.28;;;0.70;;
3465;SDS011;1747;48.884;9.160;2023-11-21T03:30:04;1.65;;;0.50;;
3465;SDS011;1747;48.884;9.160;2023-11-21T03:32:33;3.35;;;0.65;;
3465;SDS011;1747;48.884;9.160;2023-11-21T03:35:00;1.85;;;0.60;;
3465;SDS011;1747;48.884;9.160;2023-11-21T03:37:28;3.30;;;0.60;;
3465;SDS011;1747;48.884;9.160;2023-11-21T03:39:55;3.35;;;0.77;;
3465;SDS011;1747;48.884;9.160;2023-11-21T03:42:22;4.90;;;0.80;;
3465;SDS011;1747;48.884;9.160;2023-11-21T03:44:50;1.50;;;0.65;;
3465;SDS011;1747;48.884;9.160;2023-11-21T03:47:17;1.75;;;0.63;;
3465;SDS011;1747;48.884;9.160;2023-11-21T03:49:45;3.63;;;0.68;;
3465;SDS011;1747;48.884;9.160;2023-11-21T03:52:12;2.53;;;0.75;;
3465;SDS011;1747;48.884;9.160;2023-11-21T03:54:39;2.60;;;0.70;;
3465;SDS011;1747;48.884;9.160;2023-11-21T03:57:06;2.22;;;0.70;;
3465;SDS011;1747;48.884;9.160;2023-11-21T03:59:33;2.20;;;0.70;;
3465;SDS011;1747;48.884;9.160;2023-11-21T04:01:59;4.03;;;0.85;;
3465;SDS011;1747;48.884;9.160;2023-11-21T04:04:26;1.98;;;0.75;;
3465;SDS011;1747;48.884;9.160;2023-11-21T04:06:54;2.05;;;0.80;;
3465;SDS011;1747;48.884;9.160;2023-11-21T04:09:21;0.40;;;0.40;;
3465;SDS011;1747;48.884;9.160;2023-11-21T04:11:50;1.42;;;0.60;;
3465;SDS011;1747;48.884;9.160;2023-11-21T04:14:17;1.35;;;0.60;;
3465;SDS011;1747;48.884;9.160;2023-11-21T04:16:43;1.10;;;0.50;;
3465;SDS011;1747;48.884;9.160;2023-11-21T04:19:10;1.75;;;0.65;;
3465;SDS011;1747;48.884;9.160;2023-11-21T04:21:39;1.40;;;0.63;;
3465;SDS011;1747;48.884;9.160;2023-11-21T04:24:08;1.65;;;0.70;;
3465;SDS011;1747;48.884;9.160;2023-11-21T04:26:35;1.63;;;0.50;;
3465;SDS011;1747;48.884;9.160;2023-11-21T04:29:02;1.95;;;0.60;;
3465;SDS011;1747;48.884;9.160;2023-11-21T04:31:29;2.67;;;0.60;;
3465;SDS011;1747;48.884;9.160;2023-11-21T04:33:56;3.10;;;0.77;;
3465;SDS011;1747;48.884;9.160;2023-11-21T04:36:23;1.13;;;0.63;;
3465;SDS011;1747;48.884;9.160;2023-11-21T04:38:50;1.60;;;0.65;;
3465;SDS011;1747;48.884;9.160;2023-11-21T04:41:18;3.95;;;1.15;;
3465;SDS011;1747;48.884;9.160;2023-11-21T04:43:45;3.50;;;0.50;;
3465;SDS011;1747;48.884;9.160;2023-11-21T04:46:12;1.65;;;0.52;;
3465;SDS011;1747;48.884;9.160;2023-11-21T04:48:39;1.35;;;0.50;;
3465;SDS011;1747;48.884;9.160;2023-11-21T04:51:06;2.55;;;0.80;;
3465;SDS011;1747;48.884;9.160;2023-11-21T04:53:33;3.08;;;1.25;;
3465;SDS011;1747;48.884;9.160;2023-11-21T04:56:00;3.08;;;0.80;;
3465;SDS011;1747;48.884;9.160;2023-11-21T04:58:28;2.40;;;0.70;;
3465;SDS011;1747;48.884;9.160;2023-11-21T05:00:55;1.13;;;0.60;;
3465;SDS011;1747;48.884;9.160;2023-11-21T05:03:22;1.83;;;0.88;;
3465;SDS011;1747;48.884;9.160;2023-11-21T05:05:49;2.13;;;0.60;;
3465;SDS011;1747;48.884;9.160;2023-11-21T05:08:15;3.85;;;0.80;;
3465;SDS011;1747;48.884;9.160;2023-11-21T05:10:42;3.33;;;0.70;;
3465;SDS011;1747;48.884;9.160;2023-11-21T05:13:09;3.90;;;0.80;;
3465;SDS011;1747;48.884;9.160;2023-11-21T05:15:37;2.72;;;1.00;;
3465;SDS011;1747;48.884;9.160;2023-11-21T05:18:04;2.45;;;0.82;;
3465;SDS011;1747;48.884;9.160;2023-11-21T05:20:31;1.27;;;0.60;;
3465;SDS011;1747;48.884;9.160;2023-11-21T05:22:58;1.20;;;1.00;;
3465;SDS011;1747;48.884;9.160;2023-11-21T05:25:25;1.30;;;0.50;;
3465;SDS011;1747;48.884;9.160;2023-11-21T05:27:52;1.65;;;0.70;;
3465;SDS011;1747;48.884;9.160;2023-11-21T05:30:20;2.78;;;0.82;;
3465;SDS011;1747;48.884;9.160;2023-11-21T05:32:49;4.88;;;0.73;;
3465;SDS011;1747;48.884;9.160;2023-11-21T05:35:16;4.88;;;0.60;;
3465;SDS011;1747;48.884;9.160;2023-11-21T05:37:43;1.08;;;0.63;;
3465;SDS011;1747;48.884;9.160;2023-11-21T05:40:10;1.23;;;0.75;;
3465;SDS011;1747;48.884;9.160;2023-11-21T05:42:38;0.95;;;0.90;;
3465;SDS011;1747;48.884;9.160;2023-11-21T05:45:06;1.77;;;0.70;;
3465;SDS011;1747;48.884;9.160;2023-11-21T05:47:36;1.40;;;0.60;;
3465;SDS011;1747;48.884;9.160;2023-11-21T05:50:06;3.53;;;1.00;;
3465;SDS011;1747;48.884;9.160;2023-11-21T05:52:37;2.25;;;0.70;;
3465;SDS011;1747;48.884;9.160;2023-11-21T05:55:05;1.13;;;0.63;;
3465;SDS011;1747;48.884;9.160;2023-11-21T05:57:33;1.33;;;0.70;;
3465;SDS011;1747;48.884;9.160;2023-11-21T06:00:01;1.77;;;0.85;;
3465;SDS011;1747;48.884;9.160;2023-11-21T06:02:36;3.17;;;0.68;;
3465;SDS011;1747;48.884;9.160;2023-11-21T06:05:03;1.48;;;0.60;;
3465;SDS011;1747;48.884;9.160;2023-11-21T06:07:32;0.93;;;0.60;;
3465;SDS011;1747;48.884;9.160;2023-11-21T06:09:58;1.08;;;0.60;;
3465;SDS011;1747;48.884;9.160;2023-11-21T06:12:27;1.85;;;0.75;;
3465;SDS011;1747;48.884;9.160;2023-11-21T06:14:54;0.80;;;0.70;;
3465;SDS011;1747;48.884;9.160;2023-11-21T06:17:21;6.20;;;0.80;;
3465;SDS011;1747;48.884;9.160;2023-11-21T06:19:50;2.00;;;0.80;;
3465;SDS011;1747;48.884;9.160;2023-11-21T06:22:19;1.35;;;0.60;;
3465;SDS011;1747;48.884;9.160;2023-11-21T06:24:46;1.85;;;1.00;;
3465;SDS011;1747;48.884;9.160;2023-11-21T06:27:13;0.65;;;0.60;;
3465;SDS011;1747;48.884;9.160;2023-11-21T06:29:41;1.45;;;0.75;;
3465;SDS011;1747;48.884;9.160;2023-11-21T06:32:08;4.10;;;1.25;;
3465;SDS011;1747;48.884;9.160;2023-11-21T06:34:36;1.38;;;0.70;;
3465;SDS011;1747;48.884;9.160;2023-11-21T06:37:03;1.17;;;0.50;;
3465;SDS011;1747;48.884;9.160;2023-11-21T06:39:32;1.70;;;0.47;;
3465;SDS011;1747;48.884;9.160;2023-11-21T06:42:00;0.47;;;0.47;;
3465;SDS011;1747;48.884;9.160;2023-11-21T06:44:27;0.47;;;0.38;;
3465;SDS011;1747;48.884;9.160;2023-11-21T06:46:54;1.27;;;0.50;;
3465;SDS011;1747;48.884;9.160;2023-11-21T06:49:21;1.05;;;0.68;;
3465;SDS011;1747;48.884;9.160;2023-11-21T06:51:48;0.95;;;0.55;;
3465;SDS011;1747;48.884;9.160;2023-11-21T06:54:15;1.85;;;0.50;;
3465;SDS011;1747;48.884;9.160;2023-11-21T06:56:43;1.00;;;0.60;;
3465;SDS011;1747;48.884;9.160;2023-11-21T06:59:10;1.23;;;0.73;;
3465;SDS011;1747;48.884;9.160;2023-11-21T07:01:37;1.83;;;0.50;;
3465;SDS011;1747;48.884;9.160;2023-11-21T07:04:06;1.15;;;0.70;;
3465;SDS011;1747;48.884;9.160;2023-11-21T07:06:34;4.15;;;0.85;;
3465;SDS011;1747;48.884;9.160;2023-11-21T07:09:03;0.90;;;0.60;;
3465;SDS011;1747;48.884;9.160;2023-11-21T07:11:30;0.80;;;0.60;;
3465;SDS011;1747;48.884;9.160;2023-11-21T07:13:59;2.15;;;0.70;;
3465;SDS011;1747;48.884;9.160;2023-11-21T07:16:27;2.67;;;1.00;;
3465;SDS011;1747;48.884;9.160;2023-11-21T07:18:55;1.77;;;0.77;;
3465;SDS011;1747;48.884;9.160;2023-11-21T07:21:22;1.25;;;0.60;;
3465;SDS011;1747;48.884;9.160;2023-11-21T07:23:49;4.68;;;0.65;;
3465;SDS011;1747;48.884;9.160;2023-11-21T07:26:16;1.17;;;0.60;;
3465;SDS011;1747;48.884;9.160;2023-11-21T07:28:43;1.05;;;0.68;;
3465;SDS011;1747;48.884;9.160;2023-11-21T07:31:11;1.08;;;0.70;;
3465;SDS011;1747;48.884;9.160;2023-11-21T07:33:38;5.03;;;1.40;;
3465;SDS011;1747;48.884;9.160;2023-11-21T07:36:06;0.82;;;0.70;;
3465;SDS011;1747;48.884;9.160;2023-11-21T07:38:33;1.13;;;0.60;;
3465;SDS011;1747;48.884;9.160;2023-11-21T07:41:00;1.13;;;0.80;;
3465;SDS011;1747;48.884;9.160;2023-11-21T07:43:27;2.67;;;1.00;;
3465;SDS011;1747;48.884;9.160;2023-11-21T07:45:59;2.22;;;1.00;;
3465;SDS011;1747;48.884;9.160;2023-11-21T07:48:29;5.55;;;1.40;;
3465;SDS011;1747;48.884;9.160;2023-11-21T07:50:56;4.15;;;1.65;;
3465;SDS011;1747;48.884;9.160;2023-11-21T07:53:24;7.30;;;3.90;;
3465;SDS011;1747;48.884;9.160;2023-11-21T07:55:55;14.52;;;8.23;;
3465;SDS011;1747;48.884;9.160;2023-11-21T07:58:22;7.40;;;3.63;;
3465;SDS011;1747;48.884;9.160;2023-11-21T08:00:49;8.57;;;4.22;;
3465;SDS011;1747;48.884;9.160;2023-11-21T08:03:16;4.35;;;2.40;;
3465;SDS011;1747;48.884;9.160;2023-11-21T08:05:44;3.90;;;1.45;;
3465;SDS011;1747;48.884;9.160;2023-11-21T08:08:10;5.13;;;1.30;;
3465;SDS011;1747;48.884;9.160;2023-11-21T08:10:37;2.13;;;1.10;;
3465;SDS011;1747;48.884;9.160;2023-11-21T08:13:04;1.38;;;1.10;;
3465;SDS011;1747;48.884;9.160;2023-11-21T08:15:34;2.45;;;1.38;;
3465;SDS011;1747;48.884;9.160;2023-11-21T08:18:02;2.50;;;1.40;;
3465;SDS011;1747;48.884;9.160;2023-11-21T08:20:29;2.45;;;1.30;;
3465;SDS011;1747;48.884;9.160;2023-11-21T08:22:57;2.25;;;1.50;;
3465;SDS011;1747;48.884;9.160;2023-11-21T08:25:24;2.17;;;1.40;;
3465;SDS011;1747;48.884;9.160;2023-11-21T08:27:52;3.55;;;1.38;;
3465;SDS011;1747;48.884;9.160;2023-11-21T08:30:19;2.17;;;1.10;;
3465;SDS011;1747;48.884;9.160;2023-11-21T08:32:46;1.70;;;1.10;;
3465;SDS011;1747;48.884;9.160;2023-11-21T08:35:12;1.35;;;0.85;;
3465;SDS011;1747;48.884;9.160;2023-11-21T08:37:40;1.88;;;0.93;;
3465;SDS011;1747;48.884;9.160;2023-11-21T08:40:10;1.90;;;1.02;;
3465;SDS011;1747;48.884;9.160;2023-11-21T08:42:41;4.53;;;0.93;;
3465;SDS011;1747;48.884;9.160;2023-11-21T08:45:08;3.55;;;1.10;;
3465;SDS011;1747;48.884;9.160;2023-11-21T08:47:35;1.90;;;1.00;;
3465;SDS011;1747;48.884;9.160;2023-11-21T08:50:02;2.35;;;1.10;;
3465;SDS011;1747;48.884;9.160;2023-11-21T08:52:31;1.88;;;1.00;;
3465;SDS011;1747;48.884;9.160;2023-11-21T08:54:57;2.22;;;0.95;;
3465;SDS011;1747;48.884;9.160;2023-11-21T08:57:29;1.35;;;1.02;;
3465;SDS011;1747;48.884;9.160;2023-11-21T08:59:56;1.67;;;1.08;;
3465;SDS011;1747;48.884;9.160;2023-11-21T09:02:23;1.02;;;0.93;;
3465;SDS011;1747;48.884;9.160;2023-11-21T09:04:51;1.42;;;0.82;;
3465;SDS011;1747;48.884;9.160;2023-11-21T09:07:18;4.30;;;1.27;;
3465;SDS011;1747;48.884;9.160;2023-11-21T09:09:46;1.85;;;1.10;;
3465;SDS011;1747;48.884;9.160;2023-11-21T09:12:12;2.42;;;0.90;;
3465;SDS011;1747;48.884;9.160;2023-11-21T09:14:42;1.77;;;0.98;;
3465;SDS011;1747;48.884;9.160;2023-11-21T09:17:09;2.90;;;1.10;;
3465;SDS011;1747;48.884;9.160;2023-11-21T09:19:36;1.70;;;1.10;;
3465;SDS011;1747;48.884;9.160;2023-11-21T09:22:03;2.50;;;0.80;;
3465;SDS011;1747;48.884;9.160;2023-11-21T09:24:31;2.05;;;1.10;;
3465;SDS011;1747;48.884;9.160;2023-11-21T09:26:58;0.88;;;0.80;;
3465;SDS011;1747;48.884;9.160;2023-11-21T09:29:25;1.33;;;1.00;;
3465;SDS011;1747;48.884;9.160;2023-11-21T09:31:53;0.77;;;0.77;;
3465;SDS011;1747;48.884;9.160;2023-11-21T09:34:20;1.25;;;1.15;;
3465;SDS011;1747;48.884;9.160;2023-11-21T09:36:47;3.15;;;0.90;;
3465;SDS011;1747;48.884;9.160;2023-11-21T09:39:14;2.58;;;1.00;;
3465;SDS011;1747;48.884;9.160;2023-11-21T09:41:43;3.80;;;0.80;;
3465;SDS011;1747;48.884;9.160;2023-11-21T09:44:13;1.98;;;0.82;;
3465;SDS011;1747;48.884;9.160;2023-11-21T09:46:42;1.10;;;0.80;;
3465;SDS011;1747;48.884;9.160;2023-11-21T09:49:11;0.90;;;0.70;;
3465;SDS011;1747;48.884;9.160;2023-11-21T09:51:39;0.80;;;0.65;;
3465;SDS011;1747;48.884;9.160;2023-11-21T09:54:09;1.55;;;0.85;;
3465;SDS011;1747;48.884;9.160;2023-11-21T09:56:37;1.05;;;0.60;;
3465;SDS011;1747;48.884;9.160;2023-11-21T09:59:04;0.60;;;0.40;;
3465;SDS011;1747;48.884;9.160;2023-11-21T10:01:35;0.70;;;0.60;;
3465;SDS011;1747;48.884;9.160;2023-11-21T10:04:03;0.70;;;0.60;;
3465;SDS011;1747;48.884;9.160;2023-11-21T10:06:32;0.70;;;0.57;;
3465;SDS011;1747;48.884;9.160;2023-11-21T10:08:59;1.20;;;0.70;;
3465;SDS011;1747;48.884;9.160;2023-11-21T10:11:26;1.45;;;0.70;;
3465;SDS011;1747;48.884;9.160;2023-11-21T10:13:55;0.73;;;0.55;;
3465;SDS011;1747;48.884;9.160;2023-11-21T10:16:24;1.30;;;0.68;;
3465;SDS011;1747;48.884;9.160;2023-11-21T10:18:53;4.03;;;0.70;;
3465;SDS011;1747;48.884;9.160;2023-11-21T10:21:20;2.83;;;0.80;;
3465;SDS011;1747;48.884;9.160;2023-11-21T10:23:49;0.65;;;0.55;;
3465;SDS011;1747;48.884;9.160;2023-11-21T10:26:19;1.15;;;0.57;;
3465;SDS011;1747;48.884;9.160;2023-11-21T10:28:55;1.02;;;0.50;;
3465;SDS011;1747;48.884;9.160;2023-11-21T10:31:26;0.60;;;0.50;;
3465;SDS011;1747;48.884;9.160;2023-11-21T10:33:53;0.50;;;0.40;;
3465;SDS011;1747;48.884;9.160;2023-11-21T10:36:26;0.63;;;0.47;;
3465;SDS011;1747;48.884;9.160;2023-11-21T10:38:55;1.42;;;0.52;;
3465;SDS011;1747;48.884;9.160;2023-11-21T10:41:22;0.60;;;0.40;;
3465;SDS011;1747;48.884;9.160;2023-11-21T10:43:52;0.60;;;0.60;;
3465;SDS011;1747;48.884;9.160;2023-11-21T10:46:21;2.50;;;0.73;;
3465;SDS011;1747;48.884;9.160;2023-11-21T10:48:52;0.73;;;0.73;;
3465;SDS011;1747;48.884;9.160;2023-11-21T10:51:21;1.40;;;0.90;;
3465;SDS011;1747;48.884;9.160;2023-11-21T10:53:49;1.17;;;0.98;;
3465;SDS011;1747;48.884;9.160;2023-11-21T10:56:19;2.25;;;1.15;;
3465;SDS011;1747;48.884;9.160;2023-11-21T10:58:49;2.10;;;1.20;;
3465;SDS011;1747;48.884;9.160;2023-11-21T11:01:17;1.63;;;0.90;;
3465;SDS011;1747;48.884;9.160;2023-11-21T11:03:46;1.20;;;1.10;;
3465;SDS011;1747;48.884;9.160;2023-11-21T11:06:15;1.85;;;1.20;;
3465;SDS011;1747;48.884;9.160;2023-11-21T11:08:43;2.83;;;1.40;;
3465;SDS011;1747;48.884;9.160;2023-11-21T11:11:14;3.65;;;0.98;;
3465;SDS011;1747;48.884;9.160;2023-11-21T11:13:44;1.33;;;1.10;;
3465;SDS011;1747;48.884;9.160;2023-11-21T11:16:12;2.33;;;1.15;;
3465;SDS011;1747;48.884;9.160;2023-11-21T11:18:42;1.50;;;1.00;;
3465;SDS011;1747;48.884;9.160;2023-11-21T11:21:15;2.55;;;1.20;;
3465;SDS011;1747;48.884;9.160;2023-11-21T11:23:55;1.55;;;0.93;;
3465;SDS011;1747;48.884;9.160;2023-11-21T11:26:36;1.00;;;0.90;;
3465;SDS011;1747;48.884;9.160;2023-11-21T11:29:13;1.42;;;1.15;;
3465;SDS011;1747;48.884;9.160;2023-11-21T11:31:50;1.70;;;1.13;;
3465;SDS011;1747;48.884;9.160;2023-11-21T11:34:30;2.75;;;1.30;;
3465;SDS011;1747;48.884;9.160;2023-11-21T11:37:00;2.08;;;1.42;;
3465;SDS011;1747;48.884;9.160;2023-11-21T11:39:29;3.65;;;1.33;;
3465;SDS011;1747;48.884;9.160;2023-11-21T11:41:58;3.05;;;1.60;;
3465;SDS011;1747;48.884;9.160;2023-11-21T11:47:21;1.42;;;1.33;;
3465;SDS011;1747;48.884;9.160;2023-11-21T11:50:00;1.35;;;1.20;;
3465;SDS011;1747;48.884;9.160;2023-11-21T11:52:39;5.20;;;1.30;;
3465;SDS011;1747;48.884;9.160;2023-11-21T11:55:08;1.27;;;1.05;;
3465;SDS011;1747;48.884;9.160;2023-11-21T11:57:39;1.23;;;1.13;;
3465;SDS011;1747;48.884;9.160;2023-11-21T12:00:10;1.52;;;1.33;;
3465;SDS011;1747;48.884;9.160;2023-11-21T12:02:41;1.48;;;1.13;;
3465;SDS011;1747;48.884;9.160;2023-11-21T12:05:09;3.42;;;1.23;;
3465;SDS011;1747;48.884;9.160;2023-11-21T12:07:47;5.05;;;2.30;;
3465;SDS011;1747;48.884;9.160;2023-11-21T12:10:18;1.20;;;0.90;;
3465;SDS011;1747;48.884;9.160;2023-11-21T12:12:48;1.45;;;1.30;;
3465;SDS011;1747;48.884;9.160;2023-11-21T12:15:19;1.48;;;1.20;;
3465;SDS011;1747;48.884;9.160;2023-11-21T12:17:46;1.33;;;1.10;;
3465;SDS011;1747;48.884;9.160;2023-11-21T12:20:16;1.50;;;1.40;;
3465;SDS011;1747;48.884;9.160;2023-11-21T12:22:46;1.60;;;1.40;;
3465;SDS011;1747;48.884;9.160;2023-11-21T12:25:15;1.67;;;1.58;;
3465;SDS011;1747;48.884;9.160;2023-11-21T12:27:43;1.27;;;1.17;;
3465;SDS011;1747;48.884;9.160;2023-11-21T12:30:11;1.20;;;1.10;;
3465;SDS011;1747;48.884;9.160;2023-11-21T12:32:42;1.55;;;1.25;;
3465;SDS011;1747;48.884;9.160;2023-11-21T12:35:11;1.42;;;1.20;;
3465;SDS011;1747;48.884;9.160;2023-11-21T12:37:38;1.80;;;1.00;;
3465;SDS011;1747;48.884;9.160;2023-11-21T12:40:08;1.42;;;1.33;;
3465;SDS011;1747;48.884;9.160;2023-11-21T12:42:37;2.20;;;1.45;;
3465;SDS011;1747;48.884;9.160;2023-11-21T12:45:06;1.77;;;1.35;;
3465;SDS011;1747;48.884;9.160;2023-11-21T12:47:46;1.20;;;1.10;;
3465;SDS011;1747;48.884;9.160;2023-11-21T12:50:15;0.88;;;0.88;;
3465;SDS011;1747;48.884;9.160;2023-11-21T12:52:48;1.58;;;1.05;;
3465;SDS011;1747;48.884;9.160;2023-11-21T12:55:16;3.40;;;1.40;;
3465;SDS011;1747;48.884;9.160;2023-11-21T12:57:47;3.67;;;1.50;;
3465;SDS011;1747;48.884;9.160;2023-11-21T13:00:15;1.30;;;1.13;;
3465;SDS011;1747;48.884;9.160;2023-11-21T13:02:54;1.65;;;0.90;;
3465;SDS011;1747;48.884;9.160;2023-11-21T13:05:24;1.25;;;1.00;;
3465;SDS011;1747;48.884;9.160;2023-11-21T13:07:51;1.27;;;1.08;;
3465;SDS011;1747;48.884;9.160;2023-11-21T13:10:20;2.03;;;0.90;;
3465;SDS011;1747;48.884;9.160;2023-11-21T13:12:52;1.20;;;0.88;;
3465;SDS011;1747;48.884;9.160;2023-11-21T13:15:20;1.13;;;0.90;;
3465;SDS011;1747;48.884;9.160;2023-11-21T13:17:47;1.10;;;1.00;;
3465;SDS011;1747;48.884;9.160;2023-11-21T13:20:16;1.00;;;0.90;;
3465;SDS011;1747;48.884;9.160;2023-11-21T13:22:48;4.68;;;1.13;;
3465;SDS011;1747;48.884;9.160;2023-11-21T13:25:18;1.85;;;1.00;;
3465;SDS011;1747;48.884;9.160;2023-11-21T13:27:46;2.13;;;1.30;;
3465;SDS011;1747;48.884;9.160;2023-11-21T13:30:13;1.45;;;1.23;;
3465;SDS011;1747;48.884;9.160;2023-11-21T13:32:44;5.88;;;1.08;;
3465;SDS011;1747;48.884;9.160;2023-11-21T13:35:11;1.63;;;1.08;;
3465;SDS011;1747;48.884;9.160;2023-11-21T13:37:52;1.50;;;1.20;;
3465;SDS011;1747;48.884;9.160;2023-11-21T13:40:21;1.65;;;1.05;;
3465;SDS011;1747;48.884;9.160;2023-11-21T13:43:10;1.35;;;1.20;;
3465;SDS011;1747;48.884;9.160;2023-11-21T13:45:50;1.50;;;1.40;;
3465;SDS011;1747;48.884;9.160;2023-11-21T13:51:27;2.33;;;1.50;;
3465;SDS011;1747;48.884;9.160;2023-11-21T13:54:05;2.22;;;1.40;;
3465;SDS011;1747;48.884;9.160;2023-11-21T13:56:34;2.10;;;1.33;;
3465;SDS011;1747;48.884;9.160;2023-11-21T13:59:02;1.67;;;1.23;;
3465;SDS011;1747;48.884;9.160;2023-11-21T14:01:41;2.75;;;1.38;;
3465;SDS011;1747;48.884;9.160;2023-11-21T14:04:20;1.10;;;1.00;;
3465;SDS011;1747;48.884;9.160;2023-11-21T14:07:04;1.33;;;0.88;;
3465;SDS011;1747;48.884;9.160;2023-11-21T14:09:49;1.80;;;1.15;;
3465;SDS011;1747;48.884;9.160;2023-11-21T14:12:17;1.20;;;1.10;;
3465;SDS011;1747;48.884;9.160;2023-11-21T14:14:44;1.23;;;1.10;;
3465;SDS011;1747;48.884;9.160;2023-11-21T14:17:12;1.42;;;0.98;;
3465;SDS011;1747;48.884;9.160;2023-11-21T14:19:39;1.50;;;1.30;;
3465;SDS011;1747;48.884;9.160;2023-11-21T14:22:08;1.38;;;1.10;;
3465;SDS011;1747;48.884;9.160;2023-11-21T14:24:35;1.55;;;1.45;;
3465;SDS011;1747;48.884;9.160;2023-11-21T14:27:07;1.38;;;1.10;;
3465;SDS011;1747;48.884;9.160;2023-11-21T14:29:35;1.70;;;1.10;;
3465;SDS011;1747;48.884;9.160;2023-11-21T14:32:04;1.52;;;1.10;;
3465;SDS011;1747;48.884;9.160;2023-11-21T14:34:31;3.05;;;1.50;;
3465;SDS011;1747;48.884;9.160;2023-11-21T14:36:58;4.25;;;2.00;;
3465;SDS011;1747;48.884;9.160;2023-11-21T14:39:28;7.20;;;1.80;;
3465;SDS011;1747;48.884;9.160;2023-11-21T14:41:55;8.25;;;3.05;;
3465;SDS011;1747;48.884;9.160;2023-11-21T14:44:24;6.13;;;1.80;;
3465;SDS011;1747;48.884;9.160;2023-11-21T14:46:54;1.77;;;1.40;;
3465;SDS011;1747;48.884;9.160;2023-11-21T14:49:21;2.05;;;1.60;;
3465;SDS011;1747;48.884;9.160;2023-11-21T14:51:52;4.10;;;1.40;;
3465;SDS011;1747;48.884;9.160;2023-11-21T14:54:25;2.70;;;1.73;;
3465;SDS011;1747;48.884;9.160;2023-11-21T14:57:05;2.30;;;1.45;;
3465;SDS011;1747;48.884;9.160;2023-11-21T14:59:42;2.67;;;1.58;;
3465;SDS011;1747;48.884;9.160;2023-11-21T15:02:09;3.17;;;1.98;;
3465;SDS011;1747;48.884;9.160;2023-11-21T15:04:46;2.65;;;1.75;;
3465;SDS011;1747;48.884;9.160;2023-11-21T15:07:13;2.00;;;1.73;;
3465;SDS011;1747;48.884;9.160;2023-11-21T15:09:40;4.05;;;1.88;;
3465;SDS011;1747;48.884;9.160;2023-11-21T15:12:07;1.60;;;1.50;;
3465;SDS011;1747;48.884;9.160;2023-11-21T15:14:45;3.97;;;1.60;;
3465;SDS011;1747;48.884;9.160;2023-11-21T15:17:14;4.63;;;1.60;;
3465;SDS011;1747;48.884;9.160;2023-11-21T15:19:47;2.63;;;1.40;;
3465;SDS011;1747;48.884;9.160;2023-11-21T15:22:15;2.85;;;2.38;;
3465;SDS011;1747;48.884;9.160;2023-11-21T15:28:01;3.03;;;2.28;;
3465;SDS011;1747;48.884;9.160;2023-11-21T15:30:32;2.42;;;1.90;;
3465;SDS011;1747;48.884;9.160;2023-11-21T15:32:59;2.72;;;1.85;;